Time;durP1;ratioP1;P1;durP2;ratioP2;P2;SDS_P1;SDS_P2;PMS_P1;PMS_P2;Temp;Humidity;BMP_temperature;BMP_pressure;BME280_temperature;BME280_humidity;BME280_pressure;Samples;Min_cycle;Max_cycle;Signal;HPM_P1;HPM_P2
2023/05/05 00:00:54;;;;;;;21.40;12.45;;;;;;;17.56;44.96;93571.38;5003942;28;20029;-91
2023/05/05 00:03:20;;;;;;;18.02;12.23;;;;;;;17.56;44.54;93574.13;4994541;28;20124;-91
2023/05/05 00:05:47;;;;;;;18.73;13.02;;;;;;;17.56;44.36;93566.66;5028742;28;20124;-92
2023/05/05 00:08:12;;;;;;;21.20;12.95;;;;;;;17.58;44.75;93558.72;5012735;28;20554;-91
2023/05/05 00:10:38;;;;;;;19.60;12.35;;;;;;;17.55;44.88;93556.97;5023323;28;20037;-91
2023/05/05 00:13:03;;;;;;;16.33;11.55;;;;;;;17.57;44.70;93561.94;4995779;28;20038;-92
2023/05/05 00:15:29;;;;;;;17.20;12.07;;;;;;;17.56;44.69;93547.53;4995065;28;20442;-91
2023/05/05 00:17:54;;;;;;;18.83;12.13;;;;;;;17.55;44.62;93540.56;5008011;28;20038;-91
2023/05/05 00:20:21;;;;;;;20.90;11.55;;;;;;;17.57;44.47;93542.81;5010584;28;20034;-92
2023/05/05 00:22:47;;;;;;;17.02;10.95;;;;;;;17.55;44.63;93540.56;4994929;28;20116;-92
2023/05/05 00:25:13;;;;;;;20.20;11.77;;;;;;;17.56;44.50;93535.84;5011815;28;20123;-92
2023/05/05 00:27:39;;;;;;;18.67;12.15;;;;;;;17.55;44.31;93534.34;5022995;28;20053;-92
2023/05/05 00:30:05;;;;;;;16.05;11.48;;;;;;;17.55;44.50;93535.09;5040909;28;20041;-92
2023/05/05 00:32:31;;;;;;;18.00;12.27;;;;;;;17.54;44.42;93541.09;5010871;28;20128;-92
2023/05/05 00:34:56;;;;;;;20.52;12.35;;;;;;;17.55;44.46;93539.81;5004428;28;20465;-93
2023/05/05 00:37:21;;;;;;;19.95;11.82;;;;;;;17.56;44.46;93544.78;5009878;28;20045;-92
2023/05/05 00:39:48;;;;;;;19.55;12.18;;;;;;;17.55;44.19;93540.56;4995356;28;20045;-90
2023/05/05 00:42:13;;;;;;;17.75;11.52;;;;;;;17.56;44.56;93541.31;5026689;28;20057;-92
2023/05/05 00:44:40;;;;;;;17.55;11.70;;;;;;;17.55;44.57;93542.56;5027543;28;20064;-91
2023/05/05 00:47:06;;;;;;;17.98;11.43;;;;;;;17.56;44.23;93535.84;5003194;28;20045;-92
2023/05/05 00:49:32;;;;;;;19.23;12.05;;;;;;;17.54;44.84;93552.03;5030479;28;20288;-92
2023/05/05 00:51:58;;;;;;;21.48;11.40;;;;;;;17.55;44.36;93539.81;5039239;28;20535;-93
2023/05/05 00:54:24;;;;;;;17.92;11.20;;;;;;;17.53;44.57;93539.63;4993793;28;20046;-91
2023/05/05 00:56:49;;;;;;;19.25;11.55;;;;;;;17.53;44.64;93543.09;5011711;28;20040;-91
2023/05/05 00:59:15;;;;;;;17.05;10.68;;;;;;;17.54;44.71;93530.88;5006500;28;20554;-92
2023/05/05 01:01:40;;;;;;;20.73;11.20;;;;;;;17.53;44.26;93534.88;5026566;28;20046;-92
2023/05/05 01:04:06;;;;;;;14.18;11.15;;;;;;;17.51;44.73;93531.91;5023548;28;20095;-91
2023/05/05 01:06:47;;;;;;;18.13;11.00;;;;;;;17.51;44.54;93531.91;5010373;28;20037;-92
2023/05/05 01:09:27;;;;;;;19.20;12.02;;;;;;;17.51;44.21;93528.44;5020741;28;20037;-92
2023/05/05 01:11:58;;;;;;;18.10;10.82;;;;;;;17.51;44.63;93522.97;4995379;28;20121;-92
2023/05/05 01:14:30;;;;;;;18.05;11.35;;;;;;;17.50;44.50;93508.56;5045887;28;20486;-91
2023/05/05 01:16:58;;;;;;;14.65;10.55;;;;;;;17.52;44.58;93517.00;5033840;28;20039;-92
2023/05/05 01:19:30;;;;;;;15.40;10.32;;;;;;;17.53;44.42;93520.47;5021080;28;20041;-92
2023/05/05 01:21:56;;;;;;;16.15;11.25;;;;;;;17.53;44.56;93518.50;5047255;28;20037;-92
2023/05/05 01:24:42;;;;;;;15.32;10.57;;;;;;;17.53;44.49;93520.47;5017846;28;20045;-92
2023/05/05 01:27:18;;;;;;;16.58;11.07;;;;;;;17.51;44.56;93512.78;5046333;28;20562;-91
2023/05/05 01:30:00;;;;;;;16.08;10.45;;;;;;;17.50;44.57;93511.28;5010849;28;20060;-92
2023/05/05 01:32:26;;;;;;;15.85;9.88;;;;;;;17.54;44.46;93514.47;5013167;28;20091;-91
2023/05/05 01:34:55;;;;;;;13.05;9.70;;;;;;;17.50;44.64;93519.50;4998088;28;20060;-92
2023/05/05 01:37:21;;;;;;;14.68;9.50;;;;;;;17.52;44.36;93511.53;5031823;28;20037;-92
2023/05/05 01:39:50;;;;;;;15.15;10.27;;;;;;;17.51;44.57;93504.59;5033693;28;20027;-92
2023/05/05 01:42:17;;;;;;;16.45;10.82;;;;;;;17.50;44.23;93505.81;5049243;28;20034;-92
2023/05/05 01:44:43;;;;;;;14.50;10.20;;;;;;;17.51;44.54;93517.50;5034268;28;20033;-92
2023/05/05 01:47:17;;;;;;;15.95;10.43;;;;;;;17.48;44.33;93517.25;5025506;28;20045;-90
2023/05/05 01:49:43;;;;;;;15.65;10.27;;;;;;;17.51;44.27;93514.78;4995107;28;20120;-91
2023/05/05 01:52:09;;;;;;;14.55;9.55;;;;;;;17.51;44.69;93520.22;5007691;28;20145;-92
2023/05/05 01:54:35;;;;;;;15.20;10.30;;;;;;;17.45;44.60;93523.72;4997687;28;20045;-91
2023/05/05 01:57:02;;;;;;;15.27;10.30;;;;;;;17.47;44.35;93523.97;5013936;28;20037;-92
2023/05/05 01:59:27;;;;;;;17.33;10.27;;;;;;;17.47;44.58;93517.75;5009985;28;20087;-92
2023/05/05 02:01:53;;;;;;;15.43;9.13;;;;;;;17.47;44.63;93517.75;5001208;28;20045;-92
2023/05/05 02:04:21;;;;;;;12.18;9.00;;;;;;;17.50;44.46;93513.28;4999797;28;20037;-92
2023/05/05 02:06:49;;;;;;;13.25;9.40;;;;;;;17.48;44.77;93513.78;4998822;28;20120;-92
2023/05/05 02:09:14;;;;;;;15.38;9.98;;;;;;;17.46;44.23;93514.28;5006232;28;20127;-92
2023/05/05 02:11:40;;;;;;;12.25;9.13;;;;;;;17.48;44.40;93520.00;5022891;28;20375;-92
2023/05/05 02:14:05;;;;;;;15.27;10.02;;;;;;;17.50;44.45;93521.47;5009514;28;20080;-91
2023/05/05 02:16:32;;;;;;;14.13;8.52;;;;;;;17.47;44.40;93518.50;5025786;28;20445;-92
2023/05/05 02:18:58;;;;;;;16.17;9.68;;;;;;;17.45;44.48;93512.78;5007480;28;20053;-91
2023/05/05 02:21:23;;;;;;;14.32;9.13;;;;;;;17.48;44.35;93508.31;5013131;28;20033;-91
2023/05/05 02:23:50;;;;;;;13.85;9.48;;;;;;;17.47;44.54;93502.09;5012933;28;20043;-91
2023/05/05 02:26:16;;;;;;;15.07;8.93;;;;;;;17.50;44.40;93502.34;4996644;28;20069;-91
2023/05/05 02:28:52;;;;;;;14.07;9.23;;;;;;;17.45;44.59;93510.06;5004327;28;20157;-91
2023/05/05 02:31:20;;;;;;;11.02;8.27;;;;;;;17.50;43.97;93505.81;5028852;28;20124;-90
2023/05/05 02:33:45;;;;;;;15.10;9.00;;;;;;;17.45;44.80;93504.59;4996999;28;20033;-92
2023/05/05 02:36:15;;;;;;;12.68;8.80;;;;;;;17.47;44.36;93502.09;5000878;28;20075;-92
2023/05/05 02:38:42;;;;;;;13.60;8.90;;;;;;;17.47;44.41;93502.09;5004794;28;20546;-91
2023/05/05 02:41:10;;;;;;;11.00;8.35;;;;;;;17.45;44.38;93501.84;4996915;28;20052;-91
2023/05/05 02:43:35;;;;;;;12.90;8.65;;;;;;;17.45;44.31;93501.13;5013333;28;20068;-91
2023/05/05 02:46:01;;;;;;;13.13;9.30;;;;;;;17.42;44.56;93502.84;5012789;28;20042;-91
2023/05/05 02:48:28;;;;;;;14.63;9.05;;;;;;;17.44;44.46;93516.78;5007948;28;20037;-91
2023/05/05 02:50:53;;;;;;;11.05;8.50;;;;;;;17.45;44.46;93503.84;5009781;28;20407;-91
2023/05/05 02:53:19;;;;;;;11.57;8.55;;;;;;;17.44;44.46;93511.31;5043307;28;20038;-92
2023/05/05 02:55:52;;;;;;;11.90;8.32;;;;;;;17.45;44.69;93509.31;5013498;28;20722;-92
2023/05/05 02:58:27;;;;;;;12.05;7.90;;;;;;;17.45;44.43;93509.31;5015563;28;20095;-92
2023/05/05 03:01:15;;;;;;;14.63;8.18;;;;;;;17.43;44.51;93512.53;5013992;28;20030;-92
2023/05/05 03:03:47;;;;;;;12.80;8.10;;;;;;;17.45;44.55;93514.78;4997298;28;20120;-91
2023/05/05 03:06:14;;;;;;;10.25;8.10;;;;;;;17.45;44.46;93510.06;5012076;28;20041;-92
2023/05/05 03:09:06;;;;;;;10.30;7.18;;;;;;;17.43;44.62;93512.53;5012185;28;20052;-90
2023/05/05 03:11:36;;;;;;;13.60;8.85;;;;;;;17.42;44.39;93518.50;5025755;28;20060;-91
2023/05/05 03:14:09;;;;;;;;;;;;;;;17.46;44.13;93524.47;4997560;28;20043;-92
2023/05/05 03:16:35;;;;;;;10.05;6.90;;;;;;;17.44;44.28;93516.78;5044767;28;19960;-92
2023/05/05 03:19:02;;;;;;;11.90;8.13;;;;;;;17.42;44.57;93521.25;5013994;28;20041;-92
2023/05/05 03:21:27;;;;;;;12.73;8.25;;;;;;;17.40;44.53;93510.81;4995716;28;20037;-92
2023/05/05 03:23:53;;;;;;;10.10;7.57;;;;;;;17.41;44.45;93519.75;4995227;28;20457;-92
2023/05/05 03:26:18;;;;;;;9.90;7.25;;;;;;;17.42;44.31;93522.00;4995398;28;20038;-90
2023/05/05 03:28:44;;;;;;;11.82;7.85;;;;;;;17.39;44.44;93522.97;5002716;28;20068;-91
2023/05/05 03:31:09;;;;;;;10.70;7.22;;;;;;;17.41;44.58;93525.22;5031211;28;20229;-92
2023/05/05 03:33:35;;;;;;;10.68;7.45;;;;;;;17.39;44.59;93522.25;5047942;28;20029;-91
2023/05/05 03:36:00;;;;;;;10.63;7.13;;;;;;;17.38;44.18;93518.75;5022913;28;20537;-92
2023/05/05 03:38:27;;;;;;;10.57;7.13;;;;;;;17.41;44.39;93525.22;5015487;28;20405;-93
2023/05/05 03:40:52;;;;;;;9.93;7.07;;;;;;;17.40;44.52;93524.47;5048833;28;20494;-93
2023/05/05 03:43:18;;;;;;;11.70;7.18;;;;;;;17.39;44.11;93524.97;5030681;28;20044;-91
2023/05/05 03:45:43;;;;;;;10.25;6.85;;;;;;;17.37;44.58;93524.72;5048635;28;20036;-91
2023/05/05 03:48:09;;;;;;;11.23;7.25;;;;;;;17.39;44.33;93520.25;5021116;28;20383;-91
2023/05/05 03:50:35;;;;;;;9.60;7.22;;;;;;;17.41;44.65;93527.94;4995747;28;20449;-92
2023/05/05 03:53:00;;;;;;;9.25;7.60;;;;;;;17.42;44.68;93521.25;5008636;28;20041;-92
2023/05/05 03:55:26;;;;;;;9.95;6.80;;;;;;;17.41;44.50;93534.16;4994174;28;20555;-91
2023/05/05 03:57:51;;;;;;;11.75;7.88;;;;;;;17.41;44.32;93527.94;5012250;28;20038;-92
2023/05/05 04:00:17;;;;;;;9.23;7.55;;;;;;;17.43;44.62;93528.19;5001215;28;20047;-91
2023/05/05 04:02:42;;;;;;;8.63;6.75;;;;;;;17.44;44.70;93537.88;5013675;28;20034;-91
2023/05/05 04:05:08;;;;;;;10.57;7.68;;;;;;;17.44;44.42;93535.16;4994671;28;20042;-92
2023/05/05 04:07:33;;;;;;;11.00;7.22;;;;;;;17.46;44.36;93530.69;5011028;28;20049;-91
2023/05/05 04:09:59;;;;;;;11.48;7.47;;;;;;;17.52;44.25;93532.66;5011242;28;20041;-92
2023/05/05 04:12:24;;;;;;;8.70;6.90;;;;;;;17.54;44.29;93532.91;5003793;28;20521;-92
2023/05/05 04:14:50;;;;;;;9.35;6.68;;;;;;;17.56;44.09;93538.59;5025303;28;20542;-91
2023/05/05 04:17:15;;;;;;;11.18;6.97;;;;;;;17.56;44.43;93535.84;5030768;28;20041;-91
2023/05/05 04:19:41;;;;;;;10.32;6.68;;;;;;;17.56;43.97;93535.84;5029978;28;20437;-92
2023/05/05 04:22:06;;;;;;;10.68;6.90;;;;;;;17.56;44.03;93530.38;5010856;28;20038;-92
2023/05/05 04:24:32;;;;;;;8.57;6.70;;;;;;;17.56;43.88;93544.06;4994340;28;20569;-91
2023/05/05 04:26:57;;;;;;;9.15;6.20;;;;;;;17.52;44.24;93538.88;4995567;28;20049;-90
2023/05/05 04:29:23;;;;;;;9.88;6.90;;;;;;;17.51;44.30;93540.09;5003176;28;20052;-92
2023/05/05 04:31:49;;;;;;;10.95;5.75;;;;;;;17.53;44.00;93556.75;5011307;28;20506;-92
2023/05/05 04:34:14;;;;;;;8.98;5.88;;;;;;;17.53;43.89;93554.03;5048714;28;20080;-91
2023/05/05 04:36:41;;;;;;;10.10;5.85;;;;;;;17.49;44.25;93550.78;5019445;28;20033;-91
2023/05/05 04:39:07;;;;;;;9.13;6.40;;;;;;;17.54;44.13;93555.47;5009274;28;20034;-92
2023/05/05 04:41:33;;;;;;;10.20;6.55;;;;;;;17.50;44.29;93555.03;5028630;28;20514;-91
2023/05/05 04:43:59;;;;;;;13.38;6.65;;;;;;;17.57;44.08;93545.53;4998328;28;20057;-90
2023/05/05 04:46:24;;;;;;;14.48;5.78;;;;;;;17.51;43.78;93558.50;4994838;28;20053;-93
2023/05/05 04:48:51;;;;;;;22.75;6.07;;;;;;;17.56;43.72;93555.72;4999956;28;20048;-93
2023/05/05 04:51:16;;;;;;;18.65;7.60;;;;;;;17.56;43.58;93555.72;5017426;28;20095;-91
2023/05/05 04:53:43;;;;;;;15.52;5.90;;;;;;;17.55;43.75;93565.16;4999323;28;20048;-94
2023/05/05 04:56:08;;;;;;;16.70;5.80;;;;;;;17.57;43.36;93562.69;5032909;28;20033;-91
2023/05/05 04:58:34;;;;;;;11.98;5.72;;;;;;;17.54;43.95;93568.44;5029507;28;20044;-91
2023/05/05 05:01:00;;;;;;;25.98;7.82;;;;;;;17.55;43.99;93578.84;4994263;28;20056;-93
2023/05/05 05:03:25;;;;;;;16.35;6.10;;;;;;;17.57;44.00;93579.09;4994750;28;20479;-91
2023/05/05 05:05:51;;;;;;;12.57;5.78;;;;;;;17.54;44.08;93579.38;4996493;28;20084;-92
2023/05/05 05:08:18;;;;;;;11.55;5.50;;;;;;;17.56;44.00;93591.25;5014431;28;20088;-93
2023/05/05 05:10:46;;;;;;;23.35;10.23;;;;;;;17.60;44.26;93585.53;4998605;28;20048;-92
2023/05/05 05:13:11;;;;;;;13.57;7.05;;;;;;;17.61;44.17;93587.03;5029335;28;20409;-92
2023/05/05 05:15:37;;;;;;;16.00;8.98;;;;;;;17.58;44.16;93594.25;5031699;28;20037;-93
2023/05/05 05:18:03;;;;;;;19.85;10.10;;;;;;;17.62;44.23;93594.72;5050821;28;20048;-92
2023/05/05 05:20:29;;;;;;;27.55;13.90;;;;;;;17.65;44.17;93590.28;5025492;28;20037;-91
2023/05/05 05:22:56;;;;;;;35.53;14.32;;;;;;;17.59;43.73;93593.00;5027726;28;20048;-93
2023/05/05 05:25:21;;;;;;;32.30;16.35;;;;;;;17.61;44.35;93593.25;5029844;28;20594;-91
2023/05/05 05:27:47;;;;;;;36.45;16.50;;;;;;;17.64;44.13;93592.28;4998441;28;20044;-93
2023/05/05 05:30:12;;;;;;;45.63;20.30;;;;;;;17.64;43.84;93589.53;5025561;28;20394;-92
2023/05/05 05:32:38;;;;;;;47.95;20.95;;;;;;;17.64;44.22;93584.06;4998593;28;20061;-92
2023/05/05 05:35:03;;;;;;;46.55;23.40;;;;;;;17.66;44.23;93591.78;4997960;28;20047;-93
2023/05/05 05:37:30;;;;;;;50.40;24.75;;;;;;;17.66;44.38;93587.06;5018767;28;20065;-93
2023/05/05 05:39:55;;;;;;;51.83;24.92;;;;;;;17.65;43.77;93596.50;5008079;28;20037;-92
2023/05/05 05:42:21;;;;;;;45.38;20.83;;;;;;;17.74;44.26;93592.75;5013373;28;20071;-92
2023/05/05 05:44:46;;;;;;;47.72;24.08;;;;;;;17.71;44.14;93593.75;5033831;28;20135;-94
2023/05/05 05:47:12;;;;;;;38.85;19.65;;;;;;;17.74;44.08;93595.50;5033712;28;20067;-93
2023/05/05 05:49:37;;;;;;;41.80;21.90;;;;;;;17.72;43.89;93592.50;5014892;28;20107;-91
2023/05/05 05:52:03;;;;;;;42.05;20.98;;;;;;;17.72;44.22;93590.53;5012289;28;20052;-92
2023/05/05 05:54:28;;;;;;;52.85;25.73;;;;;;;17.69;44.24;93596.25;4998036;28;20099;-91
2023/05/05 05:56:54;;;;;;;46.92;22.42;;;;;;;17.73;44.34;93596.72;5014257;28;20120;-94
2023/05/05 05:59:19;;;;;;;52.85;24.48;;;;;;;17.74;44.24;93592.75;5029871;28;20045;-91
2023/05/05 06:01:45;;;;;;;46.28;23.42;;;;;;;17.70;44.16;93593.00;5019753;28;20075;-95
2023/05/05 06:04:11;;;;;;;43.25;23.58;;;;;;;17.77;44.06;93597.19;5000573;28;20053;-91
2023/05/05 06:06:37;;;;;;;50.03;22.73;;;;;;;17.79;44.03;93594.72;5034572;28;20052;-92
2023/05/05 06:09:03;;;;;;;45.72;20.98;;;;;;;17.75;44.24;93605.91;5033476;28;20108;-94
2023/05/05 06:11:29;;;;;;;50.60;24.83;;;;;;;17.75;44.36;93596.97;5025265;28;20037;-92
2023/05/05 06:13:54;;;;;;;57.05;27.58;;;;;;;17.77;44.30;93599.94;5044377;28;20042;-93
2023/05/05 06:16:20;;;;;;;40.20;20.23;;;;;;;17.77;44.57;93594.47;5032468;28;20037;-94
2023/05/05 06:18:45;;;;;;;40.65;20.58;;;;;;;17.78;43.99;93598.69;5052814;28;20379;-93
2023/05/05 06:21:12;;;;;;;66.80;32.33;;;;;;;17.79;44.24;93595.44;5030443;28;20059;-92
2023/05/05 06:23:38;;;;;;;53.08;26.33;;;;;;;17.80;44.02;93602.41;5000513;28;20091;-92
2023/05/05 06:26:03;;;;;;;67.72;34.55;;;;;;;17.79;43.98;93602.91;4997476;28;20050;-92
2023/05/05 06:28:28;;;;;;;49.97;25.35;;;;;;;17.84;44.34;93598.69;5025793;28;20687;-93
2023/05/05 06:30:55;;;;;;;48.67;27.17;;;;;;;17.83;44.22;93595.19;5009842;28;20041;-91
2023/05/05 06:33:20;;;;;;;75.07;38.65;;;;;;;17.83;44.12;93592.47;5015977;28;20029;-92
2023/05/05 06:35:48;;;;;;;67.95;34.08;;;;;;;17.84;44.17;93593.94;5033635;28;20071;-93
2023/05/05 06:38:14;;;;;;;65.28;32.75;;;;;;;17.86;44.24;93590.72;5015457;28;20103;-94
2023/05/05 06:40:40;;;;;;;56.40;29.80;;;;;;;17.88;44.44;93590.97;5010631;28;20618;-94
2023/05/05 06:43:06;;;;;;;73.20;33.90;;;;;;;17.88;44.13;93585.50;5052005;28;20098;-92
2023/05/05 06:45:32;;;;;;;54.72;29.05;;;;;;;17.92;44.29;93589.47;5035346;28;20033;-95
2023/05/05 06:47:58;;;;;;;57.38;28.33;;;;;;;17.92;43.88;93584.00;5034492;28;20441;-92
2023/05/05 06:50:24;;;;;;;61.38;30.55;;;;;;;17.94;44.27;93586.97;5012070;28;20052;-91
2023/05/05 06:52:49;;;;;;;57.38;30.60;;;;;;;17.93;43.94;93582.75;4996833;28;20038;-92
2023/05/05 06:55:15;;;;;;;54.88;27.20;;;;;;;17.98;44.00;93587.44;4993216;28;20030;-93
2023/05/05 06:57:41;;;;;;;58.72;30.75;;;;;;;18.03;44.09;93586.66;5017909;28;20033;-92
2023/05/05 07:00:10;;;;;;;68.10;33.55;;;;;;;18.01;44.90;93583.69;4996901;28;20034;-91
2023/05/05 07:02:35;;;;;;;65.57;32.03;;;;;;;18.01;44.34;93596.63;5017863;22;20053;-91
2023/05/05 07:05:01;;;;;;;73.78;37.78;;;;;;;18.00;43.84;93595.88;5020381;28;20050;-93
2023/05/05 07:07:26;;;;;;;56.28;27.20;;;;;;;18.03;43.83;93588.66;4995739;28;20072;-93
2023/05/05 07:09:52;;;;;;;67.78;33.30;;;;;;;18.01;43.89;93586.41;5026073;28;20107;-93
2023/05/05 07:12:17;;;;;;;77.95;38.78;;;;;;;18.03;43.88;93588.66;4992580;28;20049;-93
2023/05/05 07:14:43;;;;;;;70.45;35.53;;;;;;;18.04;43.95;93581.94;4993779;28;20271;-93
2023/05/05 07:17:09;;;;;;;71.30;34.28;;;;;;;18.05;44.04;93578.69;4975912;28;20126;-92
2023/05/05 07:19:35;;;;;;;74.45;37.00;;;;;;;18.05;44.06;93588.91;5009345;28;20034;-92
2023/05/05 07:22:00;;;;;;;76.60;40.17;;;;;;;18.05;44.12;93577.97;4993534;28;20463;-91
2023/05/05 07:24:26;;;;;;;89.07;42.53;;;;;;;18.08;43.75;93577.69;4992252;28;20049;-91
2023/05/05 07:26:51;;;;;;;81.90;42.78;;;;;;;18.10;43.96;93583.41;4973478;28;20038;-91
2023/05/05 07:29:17;;;;;;;77.50;40.85;;;;;;;18.09;44.04;93575.72;5019524;28;20114;-92
2023/05/05 07:31:42;;;;;;;81.72;41.65;;;;;;;18.08;43.88;93580.44;4990008;28;20038;-93
2023/05/05 07:34:08;;;;;;;79.80;41.40;;;;;;;18.06;44.07;93579.44;4974790;28;20141;-91
2023/05/05 07:36:33;;;;;;;82.30;40.45;;;;;;;18.07;44.26;93575.47;4974367;28;20033;-90
2023/05/05 07:38:59;;;;;;;80.10;40.08;;;;;;;18.07;44.20;93568.00;4992892;28;20030;-89
2023/05/05 07:41:24;;;;;;;65.97;31.42;;;;;;;18.13;44.41;93570.72;4991516;28;20037;-89
2023/05/05 07:43:50;;;;;;;75.70;39.63;;;;;;;18.10;44.42;93577.19;4975943;28;20038;-90
2023/05/05 07:46:16;;;;;;;66.22;32.80;;;;;;;18.13;44.44;93570.72;4990794;28;20053;-90
2023/05/05 07:48:42;;;;;;;62.88;31.80;;;;;;;18.12;44.49;93575.44;4974698;28;20041;-93
2023/05/05 07:51:08;;;;;;;49.30;26.65;;;;;;;18.13;44.41;93578.91;4975370;28;20042;-92
2023/05/05 07:53:33;;;;;;;63.22;33.05;;;;;;;18.11;44.24;93575.94;4976628;28;20054;-90
2023/05/05 07:55:58;;;;;;;65.72;34.90;;;;;;;18.10;44.30;93577.94;4992516;28;20057;-91
2023/05/05 07:58:24;;;;;;;61.22;33.38;;;;;;;18.12;43.82;93575.44;4976989;28;20053;-92
2023/05/05 08:00:51;;;;;;;59.35;29.65;;;;;;;18.12;44.85;93569.97;4978748;28;20048;-91
2023/05/05 08:03:18;;;;;;;62.70;31.80;;;;;;;18.13;44.36;93571.47;4977606;28;20058;-90
2023/05/05 08:05:44;;;;;;;47.05;25.33;;;;;;;18.12;44.44;93577.44;4979798;28;20261;-91
2023/05/05 08:08:09;;;;;;;44.83;25.30;;;;;;;18.15;44.43;93576.44;4978279;28;20053;-91
2023/05/05 08:10:34;;;;;;;61.42;27.75;;;;;;;18.13;44.67;93578.91;4979202;28;20038;-91
2023/05/05 08:13:00;;;;;;;43.42;24.02;;;;;;;18.13;44.81;93576.94;5011230;28;20045;-92
2023/05/05 08:15:25;;;;;;;44.60;23.10;;;;;;;18.14;44.67;93583.16;4994550;28;20100;-91
2023/05/05 08:17:51;;;;;;;40.47;22.23;;;;;;;18.13;44.55;93582.41;4979673;28;20085;-91
2023/05/05 08:20:18;;;;;;;46.58;22.90;;;;;;;18.16;44.72;93580.66;4978003;28;20100;-89
2023/05/05 08:22:43;;;;;;;49.45;27.42;;;;;;;18.13;44.24;93584.41;4992602;28;20061;-91
2023/05/05 08:25:09;;;;;;;56.53;29.77;;;;;;;18.15;44.49;93582.66;4990095;28;20116;-91
2023/05/05 08:27:36;;;;;;;45.63;24.98;;;;;;;18.14;44.93;93578.41;4976179;28;20523;-92
2023/05/05 08:30:02;;;;;;;38.28;20.25;;;;;;;18.16;44.69;93580.66;4975071;28;20078;-91
2023/05/05 08:32:27;;;;;;;33.88;19.00;;;;;;;18.18;44.81;93588.34;4974590;28;20487;-89
2023/05/05 08:34:52;;;;;;;37.25;19.88;;;;;;;18.18;44.97;93591.84;5006835;28;20038;-88
2023/05/05 08:37:18;;;;;;;39.25;20.98;;;;;;;18.15;45.13;93584.63;5005568;28;20038;-88
2023/05/05 08:39:43;;;;;;;53.40;26.25;;;;;;;18.16;44.60;93580.66;4991968;28;20038;-89
2023/05/05 08:42:09;;;;;;;45.40;22.95;;;;;;;18.16;44.23;93580.66;4993595;28;20408;-88
2023/05/05 08:44:35;;;;;;;35.50;19.98;;;;;;;18.18;44.80;93585.63;4978560;28;20041;-88
2023/05/05 08:47:00;;;;;;;35.15;19.58;;;;;;;18.22;45.08;93584.09;5010461;28;20041;-88
2023/05/05 08:49:26;;;;;;;26.85;17.13;;;;;;;18.20;45.03;93588.56;4993848;28;20113;-89
2023/05/05 08:51:51;;;;;;;36.40;18.45;;;;;;;18.21;44.91;93588.06;4978252;28;20488;-88
2023/05/05 08:54:18;;;;;;;38.08;19.05;;;;;;;18.20;45.09;93581.09;5009866;28;20436;-89
2023/05/05 08:56:43;;;;;;;31.58;15.88;;;;;;;18.20;44.72;93586.59;4991532;28;20129;-89
2023/05/05 08:59:09;;;;;;;33.95;18.48;;;;;;;18.23;44.83;93595.78;5006778;28;20089;-89
2023/05/05 09:01:35;;;;;;;35.20;18.92;;;;;;;18.23;45.47;93595.78;4987035;28;20065;-88
2023/05/05 09:04:02;;;;;;;33.40;18.63;;;;;;;18.22;45.13;93591.56;4978223;28;20524;-89
2023/05/05 09:06:27;;;;;;;63.92;26.52;;;;;;;18.24;44.58;93581.59;4992747;28;20672;-89
2023/05/05 09:08:53;;;;;;;40.00;20.63;;;;;;;18.22;45.12;93586.81;4994441;28;20049;-88
2023/05/05 09:11:18;;;;;;;54.08;26.05;;;;;;;18.22;45.17;93591.56;4977334;28;20034;-89
2023/05/05 09:13:45;;;;;;;41.72;22.45;;;;;;;18.20;44.85;93580.38;4977756;28;20081;-88
2023/05/05 09:16:12;;;;;;;52.83;26.05;;;;;;;18.23;44.71;93587.56;4994209;28;20054;-88
2023/05/05 09:18:39;;;;;;;50.00;25.02;;;;;;;18.22;44.88;93584.09;4994301;28;20488;-87
2023/05/05 09:21:24;;;;;;;72.00;25.52;;;;;;;18.22;44.77;93578.63;4995120;28;20092;-91
2023/05/05 09:24:10;;;;;;;93.80;28.52;;;;;;;18.21;44.53;93577.13;4995112;28;20488;-90
2023/05/05 09:26:40;;;;;;;88.78;24.35;;;;;;;18.22;45.14;93570.41;5014364;28;20527;-89
2023/05/05 09:29:05;;;;;;;75.38;26.10;;;;;;;18.23;45.02;93584.81;4990156;28;20100;-92
2023/05/05 09:31:32;;;;;;;54.28;21.95;;;;;;;18.23;44.98;93580.09;4978505;28;20502;-90
2023/05/05 09:33:59;;;;;;;51.53;20.77;;;;;;;18.22;44.70;93580.59;4978206;28;20052;-92
2023/05/05 09:36:46;;;;;;;41.90;19.25;;;;;;;18.23;45.41;93569.16;4990524;28;20069;-91
2023/05/05 09:39:13;;;;;;;61.55;23.30;;;;;;;18.22;44.95;93570.41;5006222;28;20084;-91
2023/05/05 09:41:39;;;;;;;71.15;23.95;;;;;;;18.24;44.59;93572.63;4993885;28;20042;-89
2023/05/05 09:44:04;;;;;;;205.25;38.55;;;;;;;18.25;45.26;93579.59;4977065;28;20049;-89
2023/05/05 09:46:30;;;;;;;219.30;44.72;;;;;;;18.23;44.92;93576.63;4994420;28;20042;-88
2023/05/05 09:49:10;;;;;;;63.75;22.63;;;;;;;18.24;44.82;93575.38;4977959;28;20041;-95
2023/05/05 09:51:35;;;;;;;34.40;16.58;;;;;;;18.25;45.12;93577.59;4997076;28;20796;-92
2023/05/05 09:54:01;;;;;;;49.53;18.35;;;;;;;18.26;45.25;93579.09;4996040;28;20048;-93
2023/05/05 09:56:40;;;;;;;47.83;18.33;;;;;;;18.26;44.94;93575.63;4985938;28;20041;-93
2023/05/05 09:59:09;;;;;;;78.55;24.95;;;;;;;18.27;44.74;93577.84;4998906;28;20046;-92
2023/05/05 10:01:34;;;;;;;56.33;22.27;;;;;;;18.25;45.08;93576.88;4984309;28;20524;-91
2023/05/05 10:04:00;;;;;;;50.08;20.17;;;;;;;18.23;44.94;93574.63;4986427;28;20038;-92
2023/05/05 10:06:47;;;;;;;59.20;23.65;;;;;;;18.24;45.40;93573.38;5006030;28;20101;-92
2023/05/05 10:09:15;;;;;;;58.97;22.85;;;;;;;18.24;44.85;93567.16;5007312;28;20034;-92
2023/05/05 10:11:40;;;;;;;53.55;19.92;;;;;;;18.26;45.06;93581.84;5014629;28;20122;-91
2023/05/05 10:14:06;;;;;;;50.15;21.20;;;;;;;18.25;44.90;93569.41;4982717;28;20042;-89
2023/05/05 10:16:31;;;;;;;54.58;22.83;;;;;;;18.26;45.12;93576.34;5000468;28;20042;-91
2023/05/05 10:18:58;;;;;;;56.17;23.48;;;;;;;18.25;45.22;93572.13;4996785;28;20042;-91
2023/05/05 10:21:24;;;;;;;54.53;22.63;;;;;;;18.23;45.02;93577.38;4974959;28;20099;-89
2023/05/05 10:24:03;;;;;;;57.70;21.20;;;;;;;18.25;44.96;93577.59;4988171;28;20035;-91
2023/05/05 10:26:29;;;;;;;128.05;86.50;;;;;;;18.22;44.91;93575.88;4986023;28;20121;-90
2023/05/05 10:28:55;;;;;;;40.85;23.25;;;;;;;18.25;45.40;93576.88;4971179;28;20599;-92
2023/05/05 10:31:29;;;;;;;53.60;19.40;;;;;;;18.24;45.50;93564.44;4955111;28;20133;-91
2023/05/05 10:34:01;;;;;;;55.00;22.65;;;;;;;18.24;45.53;93567.91;4988108;28;20085;-90
2023/05/05 10:36:26;;;;;;;43.72;18.75;;;;;;;18.26;45.49;93565.41;4970501;28;20042;-90
2023/05/05 10:38:58;;;;;;;42.55;19.25;;;;;;;18.27;45.41;93563.41;4974559;28;20045;-89
2023/05/05 10:41:24;;;;;;;41.97;18.83;;;;;;;18.26;45.12;93562.69;4953074;28;20050;-90
2023/05/05 10:43:50;;;;;;;38.05;17.67;;;;;;;18.26;45.27;93559.19;4991723;28;20077;-91
2023/05/05 10:46:16;;;;;;;58.15;26.30;;;;;;;18.21;44.96;93557.22;5007726;28;20097;-90
2023/05/05 10:48:48;;;;;;;50.95;21.10;;;;;;;18.22;45.29;93556.72;4993048;28;20045;-90
2023/05/05 10:51:26;;;;;;;45.00;20.80;;;;;;;18.25;45.47;93549.50;4975161;28;20453;-90
2023/05/05 10:54:00;;;;;;;36.40;18.70;;;;;;;18.24;45.30;93551.50;5024537;28;20058;-91
2023/05/05 10:56:30;;;;;;;47.38;21.02;;;;;;;18.21;45.35;93541.56;4975466;28;20045;-91
2023/05/05 10:58:55;;;;;;;43.75;19.35;;;;;;;18.19;45.49;93535.84;4977015;28;20026;-90
2023/05/05 11:01:33;;;;;;;40.17;17.73;;;;;;;18.21;45.17;93536.09;4974277;28;20038;-91
2023/05/05 11:04:21;;;;;;;48.67;20.38;;;;;;;18.20;45.39;93536.59;4974799;28;20084;-89
2023/05/05 11:07:07;;;;;;;48.90;14.98;;;;;;;18.18;45.58;93537.13;5008716;28;20126;-90
2023/05/05 11:09:35;;;;;;;36.72;15.43;;;;;;;18.18;45.45;93531.66;4912462;29;20087;-90
2023/05/05 11:12:02;;;;;;;31.45;14.50;;;;;;;18.22;45.38;93528.63;4898926;29;20126;-91
2023/05/05 11:14:28;;;;;;;38.22;12.70;;;;;;;18.21;45.36;93527.13;4901995;29;20122;-90
2023/05/05 11:16:53;;;;;;;34.95;11.95;;;;;;;18.20;45.38;93523.66;4924971;29;20463;-90
2023/05/05 11:19:41;;;;;;;36.72;12.05;;;;;;;18.19;45.31;93518.72;4897165;29;20047;-91